createdAt,value
2018-05-07T00:00:24.330Z,11.20
2018-05-07T00:02:58.773Z,11.50
2018-05-07T00:05:32.328Z,11.50
2018-05-07T00:08:05.959Z,11.70
2018-05-07T00:10:39.491Z,11.70
2018-05-07T00:13:13.072Z,11.70
2018-05-07T00:15:46.600Z,11.80
2018-05-07T00:18:20.145Z,11.80
2018-05-07T00:20:53.830Z,11.70
2018-05-07T00:23:28.188Z,11.20
2018-05-07T00:26:01.660Z,11.10
2018-05-07T00:28:35.243Z,11.00
2018-05-07T00:31:08.767Z,11.00
2018-05-07T00:33:42.335Z,10.80
2018-05-07T00:36:16.045Z,10.80
2018-05-07T00:38:50.383Z,10.80
2018-05-07T00:41:24.820Z,10.80
2018-05-07T00:43:58.494Z,10.80
2018-05-07T00:46:32.186Z,10.40
2018-05-07T00:49:05.687Z,10.30
2018-05-07T00:51:39.226Z,10.10
2018-05-07T00:54:12.788Z,10.20
2018-05-07T00:56:47.132Z,10.00
2018-05-07T00:59:21.436Z,10.10
2018-05-07T01:01:55.244Z,10.00
2018-05-07T01:04:29.084Z,10.00
2018-05-07T01:07:02.671Z,10.00
2018-05-07T01:09:36.252Z,9.70
2018-05-07T01:12:09.779Z,9.60
2018-05-07T01:14:43.316Z,9.30
2018-05-07T01:17:16.864Z,9.40
2018-05-07T01:19:50.431Z,9.20
2018-05-07T01:22:24.199Z,9.10
2018-05-07T01:24:57.870Z,9.10
2018-05-07T01:27:31.437Z,9.10
2018-05-07T01:30:05.145Z,9.10
2018-05-07T01:32:39.423Z,9.10
2018-05-07T01:35:13.099Z,9.00
2018-05-07T01:37:46.655Z,9.00
2018-05-07T01:40:20.222Z,9.00
2018-05-07T01:42:53.768Z,8.90
2018-05-07T01:45:27.334Z,8.90
2018-05-07T01:48:00.871Z,8.90
2018-05-07T01:50:34.484Z,8.90
2018-05-07T01:53:08.806Z,9.00
2018-05-07T01:55:42.360Z,9.00
2018-05-07T01:58:15.929Z,9.00
2018-05-07T02:00:50.288Z,8.80
2018-05-07T02:03:23.952Z,8.80
2018-05-07T02:05:57.488Z,8.80
2018-05-07T02:08:31.113Z,8.90
2018-05-07T02:11:04.680Z,8.80
2018-05-07T02:13:38.339Z,8.60
2018-05-07T02:16:12.000Z,8.60
2018-05-07T02:18:45.596Z,8.60
2018-05-07T02:21:19.105Z,8.60
2018-05-07T02:23:52.709Z,8.60
2018-05-07T02:26:26.282Z,8.50
2018-05-07T02:28:59.809Z,8.50
2018-05-07T02:31:34.123Z,8.50
2018-05-07T02:34:07.865Z,8.50
2018-05-07T02:36:41.435Z,8.40
2018-05-07T02:39:15.162Z,8.40
2018-05-07T02:41:48.713Z,8.40
2018-05-07T02:44:22.317Z,8.30
2018-05-07T02:46:55.879Z,8.30
2018-05-07T02:49:29.471Z,8.10
2018-05-07T02:52:03.017Z,8.20
2018-05-07T02:54:36.568Z,8.20
2018-05-07T02:57:10.160Z,8.20
2018-05-07T02:59:43.715Z,8.20
2018-05-07T03:02:17.223Z,8.10
2018-05-07T03:04:50.804Z,8.10
2018-05-07T03:07:24.419Z,8.10
2018-05-07T03:09:57.911Z,8.10
2018-05-07T03:12:31.453Z,8.00
2018-05-07T03:15:04.963Z,7.90
2018-05-07T03:17:38.518Z,7.80
2018-05-07T03:20:12.856Z,7.80
2018-05-07T03:22:47.169Z,7.80
2018-05-07T03:25:20.656Z,7.80
2018-05-07T03:27:54.264Z,7.70
2018-05-07T03:30:28.654Z,7.50
2018-05-07T03:33:02.306Z,7.50
2018-05-07T03:35:35.928Z,7.50
2018-05-07T03:38:09.456Z,7.50
2018-05-07T03:40:42.988Z,7.60
2018-05-07T03:43:17.312Z,7.50
2018-05-07T03:45:50.976Z,7.50
2018-05-07T03:48:24.580Z,7.40
2018-05-07T03:50:58.257Z,7.50
2018-05-07T03:53:31.778Z,7.50
2018-05-07T03:56:05.305Z,7.60
2018-05-07T03:58:38.829Z,7.50
2018-05-07T04:01:12.345Z,7.60
2018-05-07T04:03:45.907Z,7.60
2018-05-07T04:06:19.378Z,7.60
2018-05-07T04:08:53.740Z,7.70
2018-05-07T04:11:27.428Z,7.70
2018-05-07T04:14:00.916Z,7.80
2018-05-07T04:16:46.385Z,7.80
2018-05-07T04:19:31.849Z,7.70
2018-05-07T04:22:17.315Z,7.60
2018-05-07T04:24:51.106Z,7.60
2018-05-07T04:27:24.668Z,7.50
2018-05-07T04:29:58.235Z,7.50
2018-05-07T04:32:31.747Z,7.50
2018-05-07T04:35:05.315Z,7.40
2018-05-07T04:37:38.854Z,7.40
2018-05-07T04:40:12.604Z,7.50
2018-05-07T04:42:46.183Z,7.50
2018-05-07T04:45:19.748Z,7.60
2018-05-07T04:47:53.244Z,7.80
2018-05-07T04:50:26.849Z,7.90
2018-05-07T04:53:00.416Z,8.00
2018-05-07T04:55:34.016Z,8.00
2018-05-07T04:58:08.305Z,8.10
2018-05-07T05:00:41.923Z,8.00
2018-05-07T05:03:15.489Z,8.20
2018-05-07T05:05:48.992Z,8.20
2018-05-07T05:08:22.563Z,8.40
2018-05-07T05:10:56.897Z,8.40
2018-05-07T05:13:30.532Z,8.40
2018-05-07T05:16:04.084Z,8.60
2018-05-07T05:18:37.716Z,8.80
2018-05-07T05:21:12.205Z,9.20
2018-05-07T05:23:45.529Z,9.20
2018-05-07T05:26:19.039Z,9.40
2018-05-07T05:28:52.606Z,9.70
2018-05-07T05:31:26.147Z,9.90
2018-05-07T05:33:59.752Z,10.10
2018-05-07T05:36:33.440Z,10.30
2018-05-07T05:39:06.936Z,10.40
2018-05-07T05:41:40.544Z,10.60
2018-05-07T05:44:14.118Z,10.70
2018-05-07T05:46:47.644Z,10.80
2018-05-07T05:49:21.250Z,10.90
2018-05-07T05:51:54.752Z,11.00
2018-05-07T05:54:28.316Z,11.10
2018-05-07T05:57:01.932Z,11.10
2018-05-07T05:59:35.609Z,11.20
2018-05-07T06:02:09.103Z,11.30
2018-05-07T06:04:42.660Z,11.40
2018-05-07T06:07:16.213Z,11.40
2018-05-07T06:09:49.816Z,11.50
2018-05-07T06:12:23.433Z,11.60
2018-05-07T06:14:57.070Z,11.80
2018-05-07T06:17:30.603Z,11.70
2018-05-07T06:20:05.048Z,11.90
2018-05-07T06:22:38.740Z,11.90
2018-05-07T06:25:12.275Z,12.00
2018-05-07T06:27:45.843Z,12.20
2018-05-07T06:30:19.413Z,12.30
2018-05-07T06:32:52.982Z,12.40
2018-05-07T06:35:26.538Z,12.50
2018-05-07T06:38:00.148Z,12.60
2018-05-07T06:40:33.728Z,12.70
2018-05-07T06:43:08.060Z,12.90
2018-05-07T06:45:41.827Z,12.90
2018-05-07T06:48:15.328Z,12.90
2018-05-07T06:50:48.969Z,13.00
2018-05-07T06:53:23.336Z,13.20
2018-05-07T06:55:56.957Z,13.20
2018-05-07T06:58:30.493Z,13.30
2018-05-07T07:01:04.092Z,13.40
2018-05-07T07:03:38.403Z,13.50
2018-05-07T07:06:12.736Z,13.70
2018-05-07T07:08:46.540Z,13.70
2018-05-07T07:11:20.042Z,13.90
2018-05-07T07:13:53.582Z,14.00
2018-05-07T07:16:27.267Z,14.10
2018-05-07T07:19:00.708Z,14.20
2018-05-07T07:21:35.050Z,14.30
2018-05-07T07:24:08.591Z,14.30
2018-05-07T07:26:42.864Z,14.40
2018-05-07T07:29:16.547Z,14.60
2018-05-07T07:31:50.195Z,14.70
2018-05-07T07:34:23.767Z,14.90
2018-05-07T07:36:57.502Z,15.00
2018-05-07T07:39:31.163Z,15.20
2018-05-07T07:42:04.684Z,15.30
2018-05-07T07:44:39.229Z,15.50
2018-05-07T07:47:12.832Z,15.50
2018-05-07T07:49:46.305Z,15.50
2018-05-07T07:52:19.874Z,15.60
2018-05-07T07:54:53.394Z,15.80
2018-05-07T07:57:26.996Z,15.90
2018-05-07T08:00:00.514Z,16.10
2018-05-07T08:02:34.828Z,16.30
2018-05-07T08:05:08.559Z,16.30
2018-05-07T08:07:42.141Z,16.40
2018-05-07T08:10:15.687Z,16.50
2018-05-07T08:12:49.243Z,16.70
2018-05-07T08:15:23.547Z,17.00
2018-05-07T08:17:57.247Z,17.00
2018-05-07T08:20:30.773Z,17.10
2018-05-07T08:23:04.347Z,17.20
2018-05-07T08:25:37.958Z,17.20
2018-05-07T08:28:11.654Z,17.30
2018-05-07T08:30:45.960Z,17.50
2018-05-07T08:33:19.725Z,17.40
2018-05-07T08:35:53.354Z,17.50
2018-05-07T08:38:27.003Z,17.50
2018-05-07T08:41:00.666Z,17.60
2018-05-07T08:43:34.378Z,17.70
2018-05-07T08:46:08.803Z,17.70
2018-05-07T08:48:43.100Z,17.90
2018-05-07T08:51:16.776Z,17.90
2018-05-07T08:53:50.296Z,18.00
2018-05-07T08:56:24.633Z,17.90
2018-05-07T08:58:58.138Z,17.90
2018-05-07T09:01:31.749Z,17.90
2018-05-07T09:04:06.034Z,18.10
2018-05-07T09:06:39.584Z,18.10
2018-05-07T09:09:13.129Z,18.20
2018-05-07T09:11:46.672Z,18.30
2018-05-07T09:14:20.331Z,18.40
2018-05-07T09:16:53.943Z,18.40
2018-05-07T09:19:27.467Z,18.40
2018-05-07T09:22:01.029Z,18.50
2018-05-07T09:24:34.629Z,18.60
2018-05-07T09:27:08.173Z,18.70
2018-05-07T09:29:41.700Z,19.00
2018-05-07T09:32:15.282Z,19.10
2018-05-07T09:34:48.905Z,19.20
2018-05-07T09:37:22.466Z,19.20
2018-05-07T09:39:56.037Z,19.30
2018-05-07T09:42:29.597Z,19.40
2018-05-07T09:45:03.182Z,19.50
2018-05-07T09:47:36.713Z,19.50
2018-05-07T09:50:11.087Z,19.40
2018-05-07T09:52:45.377Z,19.60
2018-05-07T09:55:19.092Z,19.60
2018-05-07T09:58:03.661Z,19.60
2018-05-07T10:00:37.284Z,19.70
2018-05-07T10:03:10.862Z,19.70
2018-05-07T10:05:44.477Z,19.80
2018-05-07T10:08:18.022Z,19.80
2018-05-07T10:10:52.365Z,19.90
2018-05-07T10:13:26.076Z,19.90
2018-05-07T10:15:59.575Z,20.20
2018-05-07T10:18:33.879Z,19.80
2018-05-07T10:21:07.601Z,19.80
2018-05-07T10:23:41.180Z,19.90
2018-05-07T10:26:14.718Z,20.00
2018-05-07T10:28:49.004Z,20.10
2018-05-07T10:31:22.524Z,20.10
2018-05-07T10:33:56.160Z,20.20
2018-05-07T10:36:29.680Z,20.30
2018-05-07T10:39:03.242Z,20.60
2018-05-07T10:41:36.782Z,20.80
2018-05-07T10:44:10.311Z,20.80
2018-05-07T10:46:44.622Z,20.90
2018-05-07T10:49:18.417Z,20.90
2018-05-07T10:51:52.188Z,21.00
2018-05-07T10:54:25.758Z,21.00
2018-05-07T10:56:59.316Z,21.00
2018-05-07T10:59:32.862Z,21.00
2018-05-07T11:02:06.429Z,21.10
2018-05-07T11:04:39.936Z,21.20
2018-05-07T11:07:13.507Z,21.30
2018-05-07T11:09:47.129Z,21.30
2018-05-07T11:12:20.656Z,21.20
2018-05-07T11:14:54.260Z,21.10
2018-05-07T11:17:27.813Z,21.30
2018-05-07T11:20:01.527Z,21.50
2018-05-07T11:22:35.310Z,21.50
2018-05-07T11:25:09.650Z,21.40
2018-05-07T11:27:43.189Z,21.40
2018-05-07T11:30:17.561Z,21.40
2018-05-07T11:32:51.073Z,21.40
2018-05-07T11:35:24.626Z,21.40
2018-05-07T11:37:58.298Z,21.50
2018-05-07T11:40:31.959Z,21.50
2018-05-07T11:43:05.493Z,21.60
2018-05-07T11:45:39.014Z,21.80
2018-05-07T11:48:12.687Z,22.00
2018-05-07T11:50:46.215Z,22.00
2018-05-07T11:53:19.970Z,21.90
2018-05-07T11:55:53.670Z,21.90
2018-05-07T11:58:28.100Z,21.70
2018-05-07T12:01:01.669Z,21.70
2018-05-07T12:03:35.193Z,21.70
2018-05-07T12:06:08.795Z,21.70
2018-05-07T12:08:42.386Z,21.90
2018-05-07T12:11:16.134Z,22.20
2018-05-07T12:13:49.637Z,22.40
2018-05-07T12:16:23.199Z,22.40
2018-05-07T12:18:57.734Z,22.50
2018-05-07T12:21:31.408Z,22.40
2018-05-07T12:24:05.699Z,22.80
2018-05-07T12:26:39.219Z,22.70
2018-05-07T12:29:13.654Z,22.50
2018-05-07T12:31:48.218Z,22.50
2018-05-07T12:34:21.897Z,22.50
2018-05-07T12:36:56.406Z,22.90
2018-05-07T12:39:30.115Z,22.90
2018-05-07T12:42:03.803Z,22.90
2018-05-07T12:44:37.435Z,22.90
2018-05-07T12:47:11.032Z,22.90
2018-05-07T12:49:44.596Z,22.90
2018-05-07T12:52:18.283Z,23.00
2018-05-07T12:54:51.828Z,23.10
2018-05-07T12:57:25.422Z,23.00
2018-05-07T12:59:59.942Z,23.30
2018-05-07T13:02:33.679Z,23.30
2018-05-07T13:05:07.276Z,23.30
2018-05-07T13:07:40.854Z,23.20
2018-05-07T13:10:14.511Z,23.20
2018-05-07T13:12:48.169Z,23.30
2018-05-07T13:15:21.859Z,23.20
2018-05-07T13:17:55.490Z,23.10
2018-05-07T13:20:28.978Z,23.10
2018-05-07T13:23:02.663Z,23.10
2018-05-07T13:25:36.534Z,23.10
2018-05-07T13:28:10.285Z,23.20
2018-05-07T13:30:43.972Z,23.20
2018-05-07T13:33:17.567Z,23.10
2018-05-07T13:35:51.160Z,23.10
2018-05-07T13:38:25.587Z,23.00
2018-05-07T13:40:59.216Z,23.00
2018-05-07T13:43:32.910Z,22.90
2018-05-07T13:46:07.316Z,23.00
2018-05-07T13:48:40.932Z,23.00
2018-05-07T13:51:15.332Z,23.10
2018-05-07T13:53:49.009Z,23.10
2018-05-07T13:56:22.580Z,23.10
2018-05-07T13:58:56.118Z,22.90
2018-05-07T14:01:29.840Z,22.80
2018-05-07T14:04:03.558Z,22.90
2018-05-07T14:06:37.245Z,22.90
2018-05-07T14:09:10.737Z,22.80
2018-05-07T14:11:44.260Z,23.00
2018-05-07T14:14:17.970Z,23.10
2018-05-07T14:16:51.693Z,23.30
2018-05-07T14:19:26.155Z,23.50
2018-05-07T14:21:59.929Z,23.50
2018-05-07T14:24:33.607Z,23.50
2018-05-07T14:27:07.191Z,23.60
2018-05-07T14:29:40.793Z,23.60
2018-05-07T14:32:14.373Z,23.50
2018-05-07T14:34:48.706Z,23.40
2018-05-07T14:37:22.233Z,23.40
2018-05-07T14:39:55.803Z,23.40
2018-05-07T14:42:29.390Z,23.40
2018-05-07T14:45:02.928Z,23.50
2018-05-07T14:47:36.500Z,23.40
2018-05-07T14:50:10.054Z,23.40
2018-05-07T14:52:43.614Z,23.30
2018-05-07T14:55:17.292Z,23.30
2018-05-07T14:57:50.975Z,23.20
2018-05-07T15:00:25.514Z,23.00
2018-05-07T15:02:59.124Z,23.00
2018-05-07T15:05:32.620Z,22.90
2018-05-07T15:08:06.164Z,23.10
2018-05-07T15:10:40.025Z,23.00
2018-05-07T15:13:13.595Z,22.90
2018-05-07T15:15:47.105Z,23.00
2018-05-07T15:18:20.851Z,23.00
2018-05-07T15:20:54.460Z,22.90
2018-05-07T15:23:28.960Z,22.80
2018-05-07T15:26:03.470Z,22.90
2018-05-07T15:28:37.135Z,22.80
2018-05-07T15:31:11.401Z,23.10
2018-05-07T15:33:45.107Z,23.10
2018-05-07T15:36:18.676Z,23.20
2018-05-07T15:38:52.349Z,23.30
2018-05-07T15:41:25.968Z,23.30
2018-05-07T15:43:59.618Z,23.20
2018-05-07T15:46:33.207Z,23.10
2018-05-07T15:49:07.720Z,23.10
2018-05-07T15:51:41.347Z,23.10
2018-05-07T15:54:14.919Z,23.20
2018-05-07T15:56:48.652Z,23.20
2018-05-07T15:59:22.364Z,23.40
2018-05-07T16:01:55.861Z,23.40
2018-05-07T16:04:29.426Z,23.40
2018-05-07T16:07:03.041Z,23.50
2018-05-07T16:09:36.672Z,23.60
2018-05-07T16:12:10.231Z,23.90
2018-05-07T16:14:43.827Z,24.10
2018-05-07T16:17:17.422Z,24.30
2018-05-07T16:19:51.849Z,24.70
2018-05-07T16:22:26.459Z,24.80
2018-05-07T16:25:00.073Z,24.70
2018-05-07T16:27:33.718Z,25.10
2018-05-07T16:30:08.102Z,26.10
2018-05-07T16:32:42.728Z,26.60
2018-05-07T16:35:16.240Z,26.50
2018-05-07T16:37:49.836Z,26.90
2018-05-07T16:40:24.345Z,27.10
2018-05-07T16:42:57.872Z,27.00
2018-05-07T16:45:31.466Z,27.20
2018-05-07T16:48:04.989Z,27.30
2018-05-07T16:50:38.549Z,27.60
2018-05-07T16:53:12.135Z,28.00
2018-05-07T16:55:45.656Z,28.00
2018-05-07T16:58:20.015Z,27.90
2018-05-07T17:00:53.584Z,27.90
2018-05-07T17:03:27.888Z,28.20
2018-05-07T17:06:01.453Z,28.20
2018-05-07T17:08:35.228Z,27.50
2018-05-07T17:11:08.781Z,26.90
2018-05-07T17:13:42.545Z,26.50
2018-05-07T17:16:16.218Z,26.10
2018-05-07T17:18:49.787Z,25.90
2018-05-07T17:21:23.397Z,25.40
2018-05-07T17:23:57.825Z,24.10
2018-05-07T17:26:31.408Z,24.00
2018-05-07T17:29:05.003Z,24.00
2018-05-07T17:31:38.723Z,24.50
2018-05-07T17:34:12.424Z,24.90
2018-05-07T17:36:46.080Z,25.00
2018-05-07T17:39:20.535Z,24.40
2018-05-07T17:41:54.111Z,24.40
2018-05-07T17:44:39.380Z,24.00
2018-05-07T17:47:24.765Z,23.60
2018-05-07T17:49:58.366Z,23.50
2018-05-07T17:52:31.977Z,23.10
2018-05-07T17:55:05.528Z,22.80
2018-05-07T17:57:39.118Z,22.20
2018-05-07T18:00:12.704Z,21.80
2018-05-07T18:02:46.359Z,21.70
2018-05-07T18:05:19.916Z,21.80
2018-05-07T18:07:54.424Z,21.80
2018-05-07T18:10:28.183Z,21.80
2018-05-07T18:13:02.427Z,21.70
2018-05-07T18:15:36.142Z,21.70
2018-05-07T18:18:09.825Z,21.60
2018-05-07T18:20:43.455Z,21.50
2018-05-07T18:23:16.974Z,21.50
2018-05-07T18:25:50.540Z,21.40
2018-05-07T18:28:24.260Z,21.30
2018-05-07T18:30:57.837Z,21.20
2018-05-07T18:33:31.528Z,21.20
2018-05-07T18:36:05.153Z,21.10
2018-05-07T18:38:38.711Z,20.90
2018-05-07T18:41:12.384Z,20.90
2018-05-07T18:43:46.760Z,20.80
2018-05-07T18:46:20.368Z,20.80
2018-05-07T18:48:53.930Z,20.80
2018-05-07T18:51:27.557Z,20.70
2018-05-07T18:54:01.138Z,20.60
2018-05-07T18:56:34.712Z,20.60
2018-05-07T18:59:08.987Z,20.40
2018-05-07T19:01:42.709Z,20.40
2018-05-07T19:04:16.296Z,20.30
2018-05-07T19:06:49.912Z,20.20
2018-05-07T19:09:23.475Z,20.10
2018-05-07T19:11:57.164Z,20.10
2018-05-07T19:14:30.816Z,20.00
2018-05-07T19:17:04.319Z,19.90
2018-05-07T19:19:37.900Z,19.80
2018-05-07T19:22:11.406Z,19.70
2018-05-07T19:24:45.118Z,19.60
2018-05-07T19:27:18.662Z,19.60
2018-05-07T19:29:52.238Z,19.40
2018-05-07T19:32:26.519Z,19.30
2018-05-07T19:35:00.147Z,19.30
2018-05-07T19:37:33.764Z,19.20
2018-05-07T19:40:07.537Z,19.10
2018-05-07T19:42:41.119Z,19.00
2018-05-07T19:45:14.717Z,19.00
2018-05-07T19:47:48.330Z,18.90
2018-05-07T19:50:21.915Z,18.80
2018-05-07T19:52:55.517Z,18.80
2018-05-07T19:55:29.027Z,18.80
2018-05-07T19:58:02.620Z,18.70
2018-05-07T20:00:36.224Z,18.70
2018-05-07T20:03:09.834Z,18.60
2018-05-07T20:05:43.405Z,18.60
2018-05-07T20:08:17.011Z,18.60
2018-05-07T20:10:51.466Z,18.40
2018-05-07T20:13:25.962Z,18.30
2018-05-07T20:15:59.605Z,18.30
2018-05-07T20:18:33.169Z,18.20
2018-05-07T20:21:06.780Z,18.10
2018-05-07T20:23:40.365Z,18.00
2018-05-07T20:26:13.871Z,17.90
2018-05-07T20:28:47.374Z,17.90
2018-05-07T20:31:20.986Z,17.80
2018-05-07T20:33:54.580Z,17.70
2018-05-07T20:36:28.181Z,17.70
2018-05-07T20:39:01.771Z,17.70
2018-05-07T20:41:35.413Z,17.70
2018-05-07T20:44:08.865Z,17.70
2018-05-07T20:46:42.393Z,17.70
2018-05-07T20:49:15.957Z,17.60
2018-05-07T20:51:49.579Z,17.40
2018-05-07T20:54:23.281Z,17.20
2018-05-07T20:56:56.804Z,16.90
2018-05-07T20:59:30.348Z,16.80
2018-05-07T21:02:03.984Z,16.60
2018-05-07T21:04:37.578Z,16.40
2018-05-07T21:07:11.256Z,16.10
2018-05-07T21:09:44.739Z,16.00
2018-05-07T21:12:18.515Z,15.90
2018-05-07T21:14:52.088Z,15.80
2018-05-07T21:17:25.660Z,15.60
2018-05-07T21:19:59.331Z,15.50
2018-05-07T21:22:32.914Z,15.40
2018-05-07T21:25:06.499Z,15.30
2018-05-07T21:27:40.039Z,15.30
2018-05-07T21:30:13.602Z,15.00
2018-05-07T21:32:47.184Z,14.40
2018-05-07T21:35:20.782Z,14.50
2018-05-07T21:37:54.360Z,14.50
2018-05-07T21:40:27.876Z,14.60
2018-05-07T21:43:01.417Z,14.60
2018-05-07T21:45:34.993Z,14.60
2018-05-07T21:48:08.584Z,14.50
2018-05-07T21:50:42.196Z,14.50
2018-05-07T21:53:15.761Z,14.50
2018-05-07T21:55:49.325Z,14.50
2018-05-07T21:58:22.907Z,14.50
2018-05-07T22:00:56.482Z,14.50
2018-05-07T22:03:30.080Z,14.50
2018-05-07T22:06:03.777Z,14.30
2018-05-07T22:08:37.435Z,14.20
2018-05-07T22:11:11.200Z,14.00
2018-05-07T22:13:45.615Z,14.00
2018-05-07T22:16:19.326Z,14.00
2018-05-07T22:18:52.938Z,13.80
2018-05-07T22:21:26.454Z,13.70
2018-05-07T22:24:00.003Z,13.60
2018-05-07T22:26:33.591Z,13.60
2018-05-07T22:29:07.080Z,13.60
2018-05-07T22:31:40.712Z,13.50
2018-05-07T22:34:15.028Z,13.60
2018-05-07T22:36:48.750Z,13.50
2018-05-07T22:39:22.337Z,13.50
2018-05-07T22:41:55.860Z,13.30
2018-05-07T22:44:29.432Z,12.70
2018-05-07T22:47:03.036Z,12.80
2018-05-07T22:49:36.615Z,12.60
2018-05-07T22:52:10.317Z,12.40
2018-05-07T22:54:43.773Z,12.50
2018-05-07T22:57:18.060Z,12.40
2018-05-07T22:59:51.631Z,12.40
2018-05-07T23:02:25.259Z,12.40
2018-05-07T23:04:58.793Z,12.30
2018-05-07T23:07:32.286Z,12.40
2018-05-07T23:10:06.773Z,12.40
2018-05-07T23:12:40.359Z,12.40
2018-05-07T23:15:13.951Z,12.40
2018-05-07T23:17:47.507Z,12.40
2018-05-07T23:20:21.050Z,12.30
2018-05-07T23:22:54.655Z,12.30
2018-05-07T23:25:28.218Z,12.30
2018-05-07T23:28:01.865Z,12.20
2018-05-07T23:30:35.404Z,12.10
2018-05-07T23:33:09.004Z,12.00
2018-05-07T23:35:43.490Z,12.00
2018-05-07T23:38:17.226Z,12.00
2018-05-07T23:40:50.883Z,12.10
2018-05-07T23:43:25.217Z,12.00
2018-05-07T23:45:59.065Z,12.00
2018-05-07T23:48:32.611Z,12.10
2018-05-07T23:51:06.153Z,12.00
2018-05-07T23:53:39.708Z,12.00
2018-05-07T23:56:13.347Z,11.80
2018-05-07T23:58:46.946Z,11.70
